sensor_id;sensor_type;location;lat;lon;timestamp;P1;durP1;ratioP1;P2;durP2;ratioP2
50851;SDS011;43953;45.508;-122.806;2024-03-02T00:00:32;0.40;;;0.40;;
50851;SDS011;43953;45.508;-122.806;2024-03-02T00:01:04;0.55;;;0.20;;
50851;SDS011;43953;45.508;-122.806;2024-03-02T00:01:36;0.20;;;0.10;;
50851;SDS011;43953;45.508;-122.806;2024-03-02T00:02:07;0.35;;;0.10;;
50851;SDS011;43953;45.508;-122.806;2024-03-02T00:02:45;1.13;;;0.20;;
50851;SDS011;43953;45.508;-122.806;2024-03-02T00:03:19;0.15;;;0.10;;
50851;SDS011;43953;45.508;-122.806;2024-03-02T00:03:51;1.02;;;0.10;;
50851;SDS011;43953;45.508;-122.806;2024-03-02T00:04:22;0.68;;;0.30;;
50851;SDS011;43953;45.508;-122.806;2024-03-02T00:04:54;0.10;;;0.10;;
50851;SDS011;43953;45.508;-122.806;2024-03-02T00:05:26;0.65;;;0.20;;
50851;SDS011;43953;45.508;-122.806;2024-03-02T00:05:58;0.52;;;0.17;;
50851;SDS011;43953;45.508;-122.806;2024-03-02T00:06:30;2.03;;;0.20;;
50851;SDS011;43953;45.508;-122.806;2024-03-02T00:07:01;0.10;;;0.10;;
50851;SDS011;43953;45.508;-122.806;2024-03-02T00:07:33;1.05;;;0.30;;
50851;SDS011;43953;45.508;-122.806;2024-03-02T00:08:05;0.73;;;0.20;;
50851;SDS011;43953;45.508;-122.806;2024-03-02T00:08:38;1.15;;;0.10;;
50851;SDS011;43953;45.508;-122.806;2024-03-02T00:09:10;1.13;;;0.20;;
50851;SDS011;43953;45.508;-122.806;2024-03-02T00:09:43;0.82;;;0.20;;
50851;SDS011;43953;45.508;-122.806;2024-03-02T00:10:16;0.55;;;0.20;;
50851;SDS011;43953;45.508;-122.806;2024-03-02T00:10:50;0.45;;;0.10;;
50851;SDS011;43953;45.508;-122.806;2024-03-02T00:11:23;9.73;;;0.40;;
50851;SDS011;43953;45.508;-122.806;2024-03-02T00:11:54;0.25;;;0.20;;
50851;SDS011;43953;45.508;-122.806;2024-03-02T00:12:26;0.20;;;0.10;;
50851;SDS011;43953;45.508;-122.806;2024-03-02T00:12:58;0.75;;;0.10;;
50851;SDS011;43953;45.508;-122.806;2024-03-02T00:13:30;0.63;;;0.25;;
50851;SDS011;43953;45.508;-122.806;2024-03-02T00:14:03;0.50;;;0.10;;
50851;SDS011;43953;45.508;-122.806;2024-03-02T00:14:34;0.52;;;0.10;;
50851;SDS011;43953;45.508;-122.806;2024-03-02T00:15:31;1.20;;;0.10;;
50851;SDS011;43953;45.508;-122.806;2024-03-02T00:16:13;0.13;;;0.10;;
50851;SDS011;43953;45.508;-122.806;2024-03-02T00:16:47;0.98;;;0.10;;
50851;SDS011;43953;45.508;-122.806;2024-03-02T00:17:21;0.88;;;0.40;;
50851;SDS011;43953;45.508;-122.806;2024-03-02T00:17:59;0.93;;;0.20;;
50851;SDS011;43953;45.508;-122.806;2024-03-02T00:18:31;0.20;;;0.20;;
50851;SDS011;43953;45.508;-122.806;2024-03-02T00:19:07;0.47;;;0.13;;
50851;SDS011;43953;45.508;-122.806;2024-03-02T00:19:40;1.38;;;0.43;;
50851;SDS011;43953;45.508;-122.806;2024-03-02T00:20:11;0.40;;;0.20;;
50851;SDS011;43953;45.508;-122.806;2024-03-02T00:20:52;0.10;;;0.10;;
50851;SDS011;43953;45.508;-122.806;2024-03-02T00:21:26;0.52;;;0.20;;
50851;SDS011;43953;45.508;-122.806;2024-03-02T00:22:01;2.97;;;0.38;;
50851;SDS011;43953;45.508;-122.806;2024-03-02T00:22:35;0.63;;;0.20;;
50851;SDS011;43953;45.508;-122.806;2024-03-02T00:23:09;0.43;;;0.20;;
50851;SDS011;43953;45.508;-122.806;2024-03-02T00:23:41;0.25;;;0.10;;
50851;SDS011;43953;45.508;-122.806;2024-03-02T00:24:29;0.68;;;0.20;;
50851;SDS011;43953;45.508;-122.806;2024-03-02T00:25:06;0.45;;;0.20;;
50851;SDS011;43953;45.508;-122.806;2024-03-02T00:25:57;0.70;;;0.20;;
50851;SDS011;43953;45.508;-122.806;2024-03-02T00:26:30;2.05;;;0.25;;
50851;SDS011;43953;45.508;-122.806;2024-03-02T00:27:03;0.43;;;0.17;;
50851;SDS011;43953;45.508;-122.806;2024-03-02T00:27:36;3.88;;;0.40;;
50851;SDS011;43953;45.508;-122.806;2024-03-02T00:28:54;2.38;;;0.40;;
50851;SDS011;43953;45.508;-122.806;2024-03-02T00:29:29;2.70;;;0.30;;
50851;SDS011;43953;45.508;-122.806;2024-03-02T00:30:01;1.33;;;0.30;;
50851;SDS011;43953;45.508;-122.806;2024-03-02T00:31:30;2.15;;;0.55;;
50851;SDS011;43953;45.508;-122.806;2024-03-02T00:32:03;2.03;;;0.50;;
50851;SDS011;43953;45.508;-122.806;2024-03-02T00:32:39;0.73;;;0.30;;
50851;SDS011;43953;45.508;-122.806;2024-03-02T00:33:14;2.83;;;0.70;;
50851;SDS011;43953;45.508;-122.806;2024-03-02T00:33:46;3.78;;;0.30;;
50851;SDS011;43953;45.508;-122.806;2024-03-02T00:34:19;0.57;;;0.20;;
50851;SDS011;43953;45.508;-122.806;2024-03-02T00:34:50;1.52;;;0.20;;
50851;SDS011;43953;45.508;-122.806;2024-03-02T00:35:22;1.35;;;0.20;;
50851;SDS011;43953;45.508;-122.806;2024-03-02T00:35:54;3.35;;;0.40;;
50851;SDS011;43953;45.508;-122.806;2024-03-02T00:36:27;3.05;;;0.50;;
50851;SDS011;43953;45.508;-122.806;2024-03-02T00:36:58;1.27;;;0.30;;
50851;SDS011;43953;45.508;-122.806;2024-03-02T00:37:30;0.90;;;0.38;;
50851;SDS011;43953;45.508;-122.806;2024-03-02T00:38:04;2.40;;;0.40;;
50851;SDS011;43953;45.508;-122.806;2024-03-02T00:38:54;1.75;;;0.45;;
50851;SDS011;43953;45.508;-122.806;2024-03-02T00:39:27;2.28;;;0.45;;
50851;SDS011;43953;45.508;-122.806;2024-03-02T00:40:00;2.03;;;0.30;;
50851;SDS011;43953;45.508;-122.806;2024-03-02T00:40:32;3.17;;;0.60;;
50851;SDS011;43953;45.508;-122.806;2024-03-02T00:41:04;3.00;;;0.32;;
50851;SDS011;43953;45.508;-122.806;2024-03-02T00:41:40;1.85;;;0.40;;
50851;SDS011;43953;45.508;-122.806;2024-03-02T00:42:15;3.08;;;0.50;;
50851;SDS011;43953;45.508;-122.806;2024-03-02T00:42:47;1.70;;;0.40;;
50851;SDS011;43953;45.508;-122.806;2024-03-02T00:44:36;5.28;;;0.40;;
50851;SDS011;43953;45.508;-122.806;2024-03-02T00:45:08;1.80;;;0.40;;
50851;SDS011;43953;45.508;-122.806;2024-03-02T00:45:40;0.75;;;0.30;;
50851;SDS011;43953;45.508;-122.806;2024-03-02T00:46:12;2.33;;;0.30;;
50851;SDS011;43953;45.508;-122.806;2024-03-02T00:46:46;3.83;;;0.70;;
50851;SDS011;43953;45.508;-122.806;2024-03-02T00:47:18;1.75;;;0.40;;
50851;SDS011;43953;45.508;-122.806;2024-03-02T00:47:50;2.60;;;0.30;;
50851;SDS011;43953;45.508;-122.806;2024-03-02T00:48:22;2.15;;;0.50;;
50851;SDS011;43953;45.508;-122.806;2024-03-02T00:48:55;2.15;;;0.65;;
50851;SDS011;43953;45.508;-122.806;2024-03-02T00:49:28;3.17;;;0.55;;
50851;SDS011;43953;45.508;-122.806;2024-03-02T00:50:00;3.05;;;0.50;;
50851;SDS011;43953;45.508;-122.806;2024-03-02T00:50:32;2.60;;;0.38;;
50851;SDS011;43953;45.508;-122.806;2024-03-02T00:51:04;11.10;;;0.60;;
50851;SDS011;43953;45.508;-122.806;2024-03-02T00:51:35;3.63;;;0.40;;
50851;SDS011;43953;45.508;-122.806;2024-03-02T00:52:08;4.28;;;0.40;;
50851;SDS011;43953;45.508;-122.806;2024-03-02T00:52:40;1.55;;;0.40;;
50851;SDS011;43953;45.508;-122.806;2024-03-02T00:53:12;6.32;;;0.70;;
50851;SDS011;43953;45.508;-122.806;2024-03-02T00:53:44;2.17;;;0.50;;
50851;SDS011;43953;45.508;-122.806;2024-03-02T00:54:18;0.50;;;0.30;;
50851;SDS011;43953;45.508;-122.806;2024-03-02T00:54:56;3.15;;;0.30;;
50851;SDS011;43953;45.508;-122.806;2024-03-02T00:55:28;1.40;;;0.30;;
50851;SDS011;43953;45.508;-122.806;2024-03-02T00:56:00;4.22;;;0.52;;
50851;SDS011;43953;45.508;-122.806;2024-03-02T00:56:32;1.13;;;0.22;;
50851;SDS011;43953;45.508;-122.806;2024-03-02T00:57:05;1.15;;;0.30;;
50851;SDS011;43953;45.508;-122.806;2024-03-02T00:57:41;2.78;;;0.30;;
50851;SDS011;43953;45.508;-122.806;2024-03-02T00:58:14;0.73;;;0.40;;
50851;SDS011;43953;45.508;-122.806;2024-03-02T00:58:46;2.33;;;0.30;;
50851;SDS011;43953;45.508;-122.806;2024-03-02T00:59:18;1.55;;;0.40;;
50851;SDS011;43953;45.508;-122.806;2024-03-02T00:59:50;0.77;;;0.28;;
50851;SDS011;43953;45.508;-122.806;2024-03-02T01:00:21;1.23;;;0.30;;
50851;SDS011;43953;45.508;-122.806;2024-03-02T01:00:53;0.73;;;0.30;;
50851;SDS011;43953;45.508;-122.806;2024-03-02T01:01:25;1.85;;;0.30;;
50851;SDS011;43953;45.508;-122.806;2024-03-02T01:01:57;0.40;;;0.30;;
50851;SDS011;43953;45.508;-122.806;2024-03-02T01:02:28;3.83;;;0.30;;
50851;SDS011;43953;45.508;-122.806;2024-03-02T01:03:00;2.42;;;0.38;;
50851;SDS011;43953;45.508;-122.806;2024-03-02T01:03:32;1.45;;;0.30;;
50851;SDS011;43953;45.508;-122.806;2024-03-02T01:04:04;2.35;;;0.20;;
50851;SDS011;43953;45.508;-122.806;2024-03-02T01:04:36;2.17;;;0.52;;
50851;SDS011;43953;45.508;-122.806;2024-03-02T01:05:08;0.50;;;0.40;;
50851;SDS011;43953;45.508;-122.806;2024-03-02T01:05:43;1.60;;;0.40;;
50851;SDS011;43953;45.508;-122.806;2024-03-02T01:06:15;2.05;;;0.30;;
50851;SDS011;43953;45.508;-122.806;2024-03-02T01:06:47;1.20;;;0.20;;
50851;SDS011;43953;45.508;-122.806;2024-03-02T01:07:19;0.50;;;0.30;;
50851;SDS011;43953;45.508;-122.806;2024-03-02T01:07:50;2.38;;;0.30;;
50851;SDS011;43953;45.508;-122.806;2024-03-02T01:08:23;1.60;;;0.30;;
50851;SDS011;43953;45.508;-122.806;2024-03-02T01:08:56;0.50;;;0.30;;
50851;SDS011;43953;45.508;-122.806;2024-03-02T01:09:27;2.53;;;0.40;;
50851;SDS011;43953;45.508;-122.806;2024-03-02T01:09:59;0.30;;;0.28;;
50851;SDS011;43953;45.508;-122.806;2024-03-02T01:10:31;0.60;;;0.20;;
50851;SDS011;43953;45.508;-122.806;2024-03-02T01:11:03;1.85;;;0.20;;
50851;SDS011;43953;45.508;-122.806;2024-03-02T01:11:35;4.78;;;0.30;;
50851;SDS011;43953;45.508;-122.806;2024-03-02T01:12:07;1.80;;;0.22;;
50851;SDS011;43953;45.508;-122.806;2024-03-02T01:12:39;1.25;;;0.20;;
50851;SDS011;43953;45.508;-122.806;2024-03-02T01:13:11;2.25;;;0.32;;
50851;SDS011;43953;45.508;-122.806;2024-03-02T01:13:42;1.08;;;0.17;;
50851;SDS011;43953;45.508;-122.806;2024-03-02T01:14:15;3.15;;;0.20;;
50851;SDS011;43953;45.508;-122.806;2024-03-02T01:14:46;1.48;;;0.50;;
50851;SDS011;43953;45.508;-122.806;2024-03-02T01:15:18;1.70;;;0.30;;
50851;SDS011;43953;45.508;-122.806;2024-03-02T01:15:50;2.92;;;0.50;;
50851;SDS011;43953;45.508;-122.806;2024-03-02T01:16:22;0.70;;;0.32;;
50851;SDS011;43953;45.508;-122.806;2024-03-02T01:16:54;1.95;;;0.60;;
50851;SDS011;43953;45.508;-122.806;2024-03-02T01:17:26;1.30;;;0.40;;
50851;SDS011;43953;45.508;-122.806;2024-03-02T01:17:57;1.67;;;0.43;;
50851;SDS011;43953;45.508;-122.806;2024-03-02T01:18:29;0.43;;;0.17;;
50851;SDS011;43953;45.508;-122.806;2024-03-02T01:19:01;1.40;;;0.20;;
50851;SDS011;43953;45.508;-122.806;2024-03-02T01:19:33;1.83;;;0.38;;
50851;SDS011;43953;45.508;-122.806;2024-03-02T01:20:07;0.38;;;0.20;;
50851;SDS011;43953;45.508;-122.806;2024-03-02T01:20:40;1.13;;;0.40;;
50851;SDS011;43953;45.508;-122.806;2024-03-02T01:21:12;1.85;;;0.40;;
50851;SDS011;43953;45.508;-122.806;2024-03-02T01:21:44;1.67;;;0.40;;
50851;SDS011;43953;45.508;-122.806;2024-03-02T01:22:15;2.50;;;0.40;;
50851;SDS011;43953;45.508;-122.806;2024-03-02T01:22:48;3.75;;;0.50;;
50851;SDS011;43953;45.508;-122.806;2024-03-02T01:23:20;1.55;;;0.40;;
50851;SDS011;43953;45.508;-122.806;2024-03-02T01:23:55;1.45;;;0.20;;
50851;SDS011;43953;45.508;-122.806;2024-03-02T01:24:27;0.73;;;0.30;;
50851;SDS011;43953;45.508;-122.806;2024-03-02T01:24:59;2.45;;;0.25;;
50851;SDS011;43953;45.508;-122.806;2024-03-02T01:25:30;3.75;;;0.50;;
50851;SDS011;43953;45.508;-122.806;2024-03-02T01:26:02;2.65;;;0.55;;
50851;SDS011;43953;45.508;-122.806;2024-03-02T01:26:34;2.10;;;0.50;;
50851;SDS011;43953;45.508;-122.806;2024-03-02T01:27:06;3.22;;;0.60;;
50851;SDS011;43953;45.508;-122.806;2024-03-02T01:27:38;2.80;;;0.30;;
50851;SDS011;43953;45.508;-122.806;2024-03-02T01:28:10;2.40;;;0.77;;
50851;SDS011;43953;45.508;-122.806;2024-03-02T01:28:42;1.90;;;0.47;;
50851;SDS011;43953;45.508;-122.806;2024-03-02T01:29:14;0.75;;;0.30;;
50851;SDS011;43953;45.508;-122.806;2024-03-02T01:29:45;0.75;;;0.20;;
50851;SDS011;43953;45.508;-122.806;2024-03-02T01:30:17;1.63;;;0.20;;
50851;SDS011;43953;45.508;-122.806;2024-03-02T01:30:49;1.27;;;0.20;;
50851;SDS011;43953;45.508;-122.806;2024-03-02T01:31:21;2.22;;;0.40;;
50851;SDS011;43953;45.508;-122.806;2024-03-02T01:31:53;0.10;;;0.10;;
50851;SDS011;43953;45.508;-122.806;2024-03-02T01:32:27;1.60;;;0.30;;
50851;SDS011;43953;45.508;-122.806;2024-03-02T01:32:59;0.90;;;0.10;;
50851;SDS011;43953;45.508;-122.806;2024-03-02T01:33:32;1.08;;;0.30;;
50851;SDS011;43953;45.508;-122.806;2024-03-02T01:34:04;2.28;;;0.30;;
50851;SDS011;43953;45.508;-122.806;2024-03-02T01:34:36;0.98;;;0.45;;
50851;SDS011;43953;45.508;-122.806;2024-03-02T01:35:08;1.25;;;0.20;;
50851;SDS011;43953;45.508;-122.806;2024-03-02T01:35:39;1.55;;;0.32;;
50851;SDS011;43953;45.508;-122.806;2024-03-02T01:36:11;1.80;;;0.35;;
50851;SDS011;43953;45.508;-122.806;2024-03-02T01:36:43;2.97;;;0.28;;
50851;SDS011;43953;45.508;-122.806;2024-03-02T01:37:15;2.70;;;0.40;;
50851;SDS011;43953;45.508;-122.806;2024-03-02T01:37:46;4.18;;;0.50;;
50851;SDS011;43953;45.508;-122.806;2024-03-02T01:38:18;3.78;;;0.40;;
50851;SDS011;43953;45.508;-122.806;2024-03-02T01:38:51;1.35;;;0.35;;
50851;SDS011;43953;45.508;-122.806;2024-03-02T01:39:22;0.88;;;0.20;;
50851;SDS011;43953;45.508;-122.806;2024-03-02T01:39:54;3.08;;;0.35;;
50851;SDS011;43953;45.508;-122.806;2024-03-02T01:40:26;1.35;;;0.40;;
50851;SDS011;43953;45.508;-122.806;2024-03-02T01:40:59;2.15;;;0.47;;
50851;SDS011;43953;45.508;-122.806;2024-03-02T01:41:30;1.98;;;0.40;;
50851;SDS011;43953;45.508;-122.806;2024-03-02T01:42:02;4.57;;;0.68;;
50851;SDS011;43953;45.508;-122.806;2024-03-02T01:42:38;0.50;;;0.20;;
50851;SDS011;43953;45.508;-122.806;2024-03-02T01:43:10;0.85;;;0.43;;
50851;SDS011;43953;45.508;-122.806;2024-03-02T01:43:42;3.15;;;0.40;;
50851;SDS011;43953;45.508;-122.806;2024-03-02T01:44:14;2.63;;;0.40;;
50851;SDS011;43953;45.508;-122.806;2024-03-02T01:44:46;2.42;;;0.57;;
50851;SDS011;43953;45.508;-122.806;2024-03-02T01:45:18;1.30;;;0.30;;
50851;SDS011;43953;45.508;-122.806;2024-03-02T01:45:49;0.70;;;0.32;;
50851;SDS011;43953;45.508;-122.806;2024-03-02T01:46:21;3.05;;;0.60;;
50851;SDS011;43953;45.508;-122.806;2024-03-02T01:46:53;2.08;;;0.35;;
50851;SDS011;43953;45.508;-122.806;2024-03-02T01:47:24;2.08;;;0.50;;
50851;SDS011;43953;45.508;-122.806;2024-03-02T01:47:56;2.42;;;0.55;;
50851;SDS011;43953;45.508;-122.806;2024-03-02T01:48:28;6.18;;;0.70;;
50851;SDS011;43953;45.508;-122.806;2024-03-02T01:49:00;2.45;;;0.40;;
50851;SDS011;43953;45.508;-122.806;2024-03-02T01:49:31;2.60;;;0.50;;
50851;SDS011;43953;45.508;-122.806;2024-03-02T01:50:05;3.28;;;0.35;;
50851;SDS011;43953;45.508;-122.806;2024-03-02T01:50:37;3.63;;;0.40;;
50851;SDS011;43953;45.508;-122.806;2024-03-02T01:51:08;11.05;;;1.02;;
50851;SDS011;43953;45.508;-122.806;2024-03-02T01:51:41;3.70;;;0.47;;
50851;SDS011;43953;45.508;-122.806;2024-03-02T01:52:13;3.72;;;1.00;;
50851;SDS011;43953;45.508;-122.806;2024-03-02T01:52:44;3.65;;;0.75;;
50851;SDS011;43953;45.508;-122.806;2024-03-02T01:53:17;3.35;;;0.52;;
50851;SDS011;43953;45.508;-122.806;2024-03-02T01:53:48;6.75;;;0.52;;
50851;SDS011;43953;45.508;-122.806;2024-03-02T01:54:20;3.38;;;0.60;;
50851;SDS011;43953;45.508;-122.806;2024-03-02T01:54:52;4.93;;;0.60;;
50851;SDS011;43953;45.508;-122.806;2024-03-02T01:55:24;8.57;;;0.93;;
50851;SDS011;43953;45.508;-122.806;2024-03-02T01:55:56;5.57;;;0.50;;
50851;SDS011;43953;45.508;-122.806;2024-03-02T01:56:28;7.57;;;0.60;;
50851;SDS011;43953;45.508;-122.806;2024-03-02T01:57:00;1.20;;;0.65;;
50851;SDS011;43953;45.508;-122.806;2024-03-02T01:57:32;1.65;;;0.47;;
50851;SDS011;43953;45.508;-122.806;2024-03-02T01:58:04;3.70;;;0.50;;
50851;SDS011;43953;45.508;-122.806;2024-03-02T01:58:37;1.70;;;0.40;;
50851;SDS011;43953;45.508;-122.806;2024-03-02T01:59:09;5.28;;;0.68;;
50851;SDS011;43953;45.508;-122.806;2024-03-02T01:59:41;5.18;;;0.80;;
50851;SDS011;43953;45.508;-122.806;2024-03-02T02:00:13;4.53;;;0.60;;
50851;SDS011;43953;45.508;-122.806;2024-03-02T02:00:45;6.30;;;0.52;;
50851;SDS011;43953;45.508;-122.806;2024-03-02T02:01:17;3.33;;;0.65;;
50851;SDS011;43953;45.508;-122.806;2024-03-02T02:01:49;5.28;;;0.80;;
50851;SDS011;43953;45.508;-122.806;2024-03-02T02:02:20;7.20;;;0.75;;
50851;SDS011;43953;45.508;-122.806;2024-03-02T02:02:52;2.38;;;0.50;;
50851;SDS011;43953;45.508;-122.806;2024-03-02T02:03:24;3.20;;;0.63;;
50851;SDS011;43953;45.508;-122.806;2024-03-02T02:03:56;3.25;;;0.60;;
50851;SDS011;43953;45.508;-122.806;2024-03-02T02:04:28;3.42;;;0.50;;
50851;SDS011;43953;45.508;-122.806;2024-03-02T02:05:00;2.58;;;0.40;;
50851;SDS011;43953;45.508;-122.806;2024-03-02T02:05:32;2.50;;;0.50;;
50851;SDS011;43953;45.508;-122.806;2024-03-02T02:06:04;5.40;;;0.60;;
50851;SDS011;43953;45.508;-122.806;2024-03-02T02:06:36;2.15;;;0.93;;
50851;SDS011;43953;45.508;-122.806;2024-03-02T02:07:08;2.65;;;0.50;;
50851;SDS011;43953;45.508;-122.806;2024-03-02T02:07:41;4.05;;;0.57;;
50851;SDS011;43953;45.508;-122.806;2024-03-02T02:08:13;3.25;;;0.60;;
50851;SDS011;43953;45.508;-122.806;2024-03-02T02:08:45;1.13;;;0.55;;
50851;SDS011;43953;45.508;-122.806;2024-03-02T02:09:18;4.38;;;0.60;;
50851;SDS011;43953;45.508;-122.806;2024-03-02T02:09:49;4.07;;;0.47;;
50851;SDS011;43953;45.508;-122.806;2024-03-02T02:10:21;3.78;;;0.50;;
50851;SDS011;43953;45.508;-122.806;2024-03-02T02:10:53;1.98;;;0.60;;
50851;SDS011;43953;45.508;-122.806;2024-03-02T02:11:25;2.45;;;0.57;;
50851;SDS011;43953;45.508;-122.806;2024-03-02T02:11:57;3.25;;;0.52;;
50851;SDS011;43953;45.508;-122.806;2024-03-02T02:12:29;2.15;;;0.50;;
50851;SDS011;43953;45.508;-122.806;2024-03-02T02:13:01;2.28;;;0.60;;
50851;SDS011;43953;45.508;-122.806;2024-03-02T02:13:33;6.90;;;0.70;;
50851;SDS011;43953;45.508;-122.806;2024-03-02T02:14:06;4.38;;;0.52;;
50851;SDS011;43953;45.508;-122.806;2024-03-02T02:14:37;5.22;;;0.90;;
50851;SDS011;43953;45.508;-122.806;2024-03-02T02:15:26;3.50;;;0.43;;
50851;SDS011;43953;45.508;-122.806;2024-03-02T02:16:05;1.67;;;0.30;;
50851;SDS011;43953;45.508;-122.806;2024-03-02T02:16:38;3.35;;;0.63;;
50851;SDS011;43953;45.508;-122.806;2024-03-02T02:17:10;0.70;;;0.30;;
50851;SDS011;43953;45.508;-122.806;2024-03-02T02:17:41;3.92;;;0.40;;
50851;SDS011;43953;45.508;-122.806;2024-03-02T02:18:13;4.68;;;0.73;;
50851;SDS011;43953;45.508;-122.806;2024-03-02T02:18:45;1.05;;;0.47;;
50851;SDS011;43953;45.508;-122.806;2024-03-02T02:19:17;3.88;;;0.50;;
50851;SDS011;43953;45.508;-122.806;2024-03-02T02:19:48;3.25;;;0.70;;
50851;SDS011;43953;45.508;-122.806;2024-03-02T02:20:20;3.65;;;0.50;;
50851;SDS011;43953;45.508;-122.806;2024-03-02T02:20:52;2.88;;;0.60;;
50851;SDS011;43953;45.508;-122.806;2024-03-02T02:21:24;2.58;;;0.70;;
50851;SDS011;43953;45.508;-122.806;2024-03-02T02:21:57;4.72;;;0.47;;
50851;SDS011;43953;45.508;-122.806;2024-03-02T02:22:28;2.80;;;0.80;;
50851;SDS011;43953;45.508;-122.806;2024-03-02T02:23:03;5.78;;;0.70;;
50851;SDS011;43953;45.508;-122.806;2024-03-02T02:23:44;2.80;;;0.90;;
50851;SDS011;43953;45.508;-122.806;2024-03-02T02:24:19;3.75;;;1.13;;
50851;SDS011;43953;45.508;-122.806;2024-03-02T02:24:50;5.65;;;1.10;;
50851;SDS011;43953;45.508;-122.806;2024-03-02T02:25:22;3.58;;;1.60;;
50851;SDS011;43953;45.508;-122.806;2024-03-02T02:25:54;5.68;;;1.58;;
50851;SDS011;43953;45.508;-122.806;2024-03-02T02:26:26;4.85;;;1.65;;
50851;SDS011;43953;45.508;-122.806;2024-03-02T02:26:58;4.15;;;1.40;;
50851;SDS011;43953;45.508;-122.806;2024-03-02T02:27:29;3.55;;;1.77;;
50851;SDS011;43953;45.508;-122.806;2024-03-02T02:28:01;3.85;;;1.80;;
50851;SDS011;43953;45.508;-122.806;2024-03-02T02:28:33;2.97;;;2.00;;
50851;SDS011;43953;45.508;-122.806;2024-03-02T02:29:05;6.88;;;2.55;;
50851;SDS011;43953;45.508;-122.806;2024-03-02T02:29:36;5.40;;;2.33;;
50851;SDS011;43953;45.508;-122.806;2024-03-02T02:30:08;5.18;;;2.65;;
50851;SDS011;43953;45.508;-122.806;2024-03-02T02:30:40;2.58;;;1.98;;
50851;SDS011;43953;45.508;-122.806;2024-03-02T02:31:13;6.15;;;2.10;;
50851;SDS011;43953;45.508;-122.806;2024-03-02T02:31:45;4.72;;;2.30;;
50851;SDS011;43953;45.508;-122.806;2024-03-02T02:32:17;8.40;;;2.22;;
50851;SDS011;43953;45.508;-122.806;2024-03-02T02:32:49;7.05;;;2.22;;
50851;SDS011;43953;45.508;-122.806;2024-03-02T02:33:20;3.83;;;2.10;;
50851;SDS011;43953;45.508;-122.806;2024-03-02T02:33:52;4.55;;;2.88;;
50851;SDS011;43953;45.508;-122.806;2024-03-02T02:34:24;4.93;;;3.15;;
50851;SDS011;43953;45.508;-122.806;2024-03-02T02:34:56;4.93;;;3.40;;
50851;SDS011;43953;45.508;-122.806;2024-03-02T02:35:27;4.28;;;3.17;;
50851;SDS011;43953;45.508;-122.806;2024-03-02T02:36:00;4.80;;;3.13;;
50851;SDS011;43953;45.508;-122.806;2024-03-02T02:36:32;4.38;;;3.10;;
50851;SDS011;43953;45.508;-122.806;2024-03-02T02:37:05;4.50;;;3.25;;
50851;SDS011;43953;45.508;-122.806;2024-03-02T02:37:37;5.00;;;3.20;;
50851;SDS011;43953;45.508;-122.806;2024-03-02T02:38:09;3.90;;;2.65;;
50851;SDS011;43953;45.508;-122.806;2024-03-02T02:38:42;5.18;;;2.22;;
50851;SDS011;43953;45.508;-122.806;2024-03-02T02:39:18;3.78;;;2.17;;
50851;SDS011;43953;45.508;-122.806;2024-03-02T02:39:53;2.25;;;2.05;;
50851;SDS011;43953;45.508;-122.806;2024-03-02T02:40:25;3.65;;;2.17;;
50851;SDS011;43953;45.508;-122.806;2024-03-02T02:40:57;3.83;;;2.25;;
50851;SDS011;43953;45.508;-122.806;2024-03-02T02:41:29;3.63;;;2.35;;
50851;SDS011;43953;45.508;-122.806;2024-03-02T02:42:01;3.55;;;2.00;;
50851;SDS011;43953;45.508;-122.806;2024-03-02T02:42:33;2.75;;;2.15;;
50851;SDS011;43953;45.508;-122.806;2024-03-02T02:43:05;3.47;;;2.20;;
50851;SDS011;43953;45.508;-122.806;2024-03-02T02:43:37;2.90;;;1.98;;
50851;SDS011;43953;45.508;-122.806;2024-03-02T02:44:11;3.50;;;2.28;;
50851;SDS011;43953;45.508;-122.806;2024-03-02T02:44:43;2.60;;;2.30;;
50851;SDS011;43953;45.508;-122.806;2024-03-02T02:45:15;2.90;;;2.20;;
50851;SDS011;43953;45.508;-122.806;2024-03-02T02:45:47;3.38;;;2.22;;
50851;SDS011;43953;45.508;-122.806;2024-03-02T02:46:19;2.25;;;2.00;;
50851;SDS011;43953;45.508;-122.806;2024-03-02T02:46:50;4.22;;;2.10;;
50851;SDS011;43953;45.508;-122.806;2024-03-02T02:47:22;3.97;;;1.90;;
50851;SDS011;43953;45.508;-122.806;2024-03-02T02:47:54;2.35;;;2.00;;
50851;SDS011;43953;45.508;-122.806;2024-03-02T02:48:26;2.72;;;2.10;;
50851;SDS011;43953;45.508;-122.806;2024-03-02T02:48:57;3.58;;;2.15;;
50851;SDS011;43953;45.508;-122.806;2024-03-02T02:49:29;4.63;;;2.30;;
50851;SDS011;43953;45.508;-122.806;2024-03-02T02:50:02;4.00;;;2.10;;
50851;SDS011;43953;45.508;-122.806;2024-03-02T02:50:34;2.10;;;1.90;;
50851;SDS011;43953;45.508;-122.806;2024-03-02T02:51:06;3.13;;;1.90;;
50851;SDS011;43953;45.508;-122.806;2024-03-02T02:51:38;2.55;;;2.10;;
50851;SDS011;43953;45.508;-122.806;2024-03-02T02:52:10;4.13;;;1.85;;
50851;SDS011;43953;45.508;-122.806;2024-03-02T02:52:42;2.97;;;1.88;;
50851;SDS011;43953;45.508;-122.806;2024-03-02T02:53:14;3.42;;;2.10;;
50851;SDS011;43953;45.508;-122.806;2024-03-02T02:53:46;2.22;;;2.00;;
50851;SDS011;43953;45.508;-122.806;2024-03-02T02:54:17;2.85;;;1.73;;
50851;SDS011;43953;45.508;-122.806;2024-03-02T02:54:49;2.70;;;1.83;;
50851;SDS011;43953;45.508;-122.806;2024-03-02T02:55:22;3.03;;;2.08;;
50851;SDS011;43953;45.508;-122.806;2024-03-02T02:55:53;2.83;;;1.80;;
50851;SDS011;43953;45.508;-122.806;2024-03-02T02:56:25;2.50;;;2.20;;
50851;SDS011;43953;45.508;-122.806;2024-03-02T02:56:57;2.97;;;2.05;;
50851;SDS011;43953;45.508;-122.806;2024-03-02T02:57:30;2.63;;;2.20;;
50851;SDS011;43953;45.508;-122.806;2024-03-02T02:58:06;4.07;;;2.20;;
50851;SDS011;43953;45.508;-122.806;2024-03-02T02:58:39;2.58;;;1.90;;
50851;SDS011;43953;45.508;-122.806;2024-03-02T02:59:14;2.45;;;2.03;;
50851;SDS011;43953;45.508;-122.806;2024-03-02T02:59:46;2.65;;;2.03;;
50851;SDS011;43953;45.508;-122.806;2024-03-02T03:00:18;2.85;;;1.92;;
50851;SDS011;43953;45.508;-122.806;2024-03-02T03:00:50;3.17;;;2.00;;
50851;SDS011;43953;45.508;-122.806;2024-03-02T03:01:22;3.25;;;2.10;;
50851;SDS011;43953;45.508;-122.806;2024-03-02T03:01:54;3.33;;;2.15;;
50851;SDS011;43953;45.508;-122.806;2024-03-02T03:02:27;6.82;;;1.92;;
50851;SDS011;43953;45.508;-122.806;2024-03-02T03:02:59;3.80;;;1.85;;
50851;SDS011;43953;45.508;-122.806;2024-03-02T03:03:31;3.63;;;1.73;;
50851;SDS011;43953;45.508;-122.806;2024-03-02T03:04:02;2.33;;;2.08;;
50851;SDS011;43953;45.508;-122.806;2024-03-02T03:04:34;4.32;;;2.30;;
50851;SDS011;43953;45.508;-122.806;2024-03-02T03:05:06;5.05;;;2.30;;
50851;SDS011;43953;45.508;-122.806;2024-03-02T03:05:38;4.93;;;2.15;;
50851;SDS011;43953;45.508;-122.806;2024-03-02T03:06:10;4.57;;;2.00;;
50851;SDS011;43953;45.508;-122.806;2024-03-02T03:06:42;3.53;;;1.73;;
50851;SDS011;43953;45.508;-122.806;2024-03-02T03:07:15;5.40;;;2.03;;
50851;SDS011;43953;45.508;-122.806;2024-03-02T03:07:46;3.97;;;1.80;;
50851;SDS011;43953;45.508;-122.806;2024-03-02T03:08:20;3.15;;;1.98;;
50851;SDS011;43953;45.508;-122.806;2024-03-02T03:08:54;4.22;;;2.30;;
50851;SDS011;43953;45.508;-122.806;2024-03-02T03:09:25;4.30;;;1.90;;
50851;SDS011;43953;45.508;-122.806;2024-03-02T03:09:57;3.60;;;2.13;;
50851;SDS011;43953;45.508;-122.806;2024-03-02T03:10:29;5.18;;;2.00;;
50851;SDS011;43953;45.508;-122.806;2024-03-02T03:11:01;5.97;;;3.05;;
50851;SDS011;43953;45.508;-122.806;2024-03-02T03:11:32;2.85;;;2.65;;